createdAt,value
2023-04-02T00:00:11.289Z,97476.86
2023-04-02T00:03:01.994Z,97475.01
2023-04-02T00:05:51.039Z,97477.70
2023-04-02T00:08:23.837Z,97481.44
2023-04-02T00:10:54.345Z,97480.50
2023-04-02T00:13:32.520Z,97484.05
2023-04-02T00:16:00.575Z,97485.33
2023-04-02T00:18:27.982Z,97483.11
2023-04-02T00:21:09.543Z,97487.39
2023-04-02T00:23:39.700Z,97489.48
2023-04-02T00:26:31.893Z,97490.36
2023-04-02T00:29:01.489Z,97487.55
2023-04-02T00:31:29.670Z,97491.22
2023-04-02T00:33:58.549Z,97489.48
2023-04-02T00:36:30.528Z,97488.46
2023-04-02T00:39:00.356Z,97489.19
2023-04-02T00:41:31.184Z,97490.88
2023-04-02T00:44:01.416Z,97489.23
2023-04-02T00:46:47.391Z,97489.95
2023-04-02T00:49:37.146Z,97494.30
2023-04-02T00:52:17.316Z,97493.72
2023-04-02T00:55:07.284Z,97494.23
2023-04-02T00:57:34.310Z,97496.64
2023-04-02T01:00:16.209Z,97494.61
2023-04-02T01:02:43.287Z,97490.80
2023-04-02T01:05:16.955Z,97496.41
2023-04-02T01:07:56.224Z,97494.61
2023-04-02T01:10:29.026Z,97496.52
2023-04-02T01:13:14.581Z,97499.67
2023-04-02T01:16:27.636Z,97501.05
2023-04-02T01:19:46.987Z,97499.40
2023-04-02T01:22:19.518Z,97498.06
2023-04-02T01:24:47.813Z,97505.10
2023-04-02T01:27:29.304Z,97504.34
2023-04-02T01:29:59.385Z,97507.38
2023-04-02T01:32:29.021Z,97508.02
2023-04-02T01:35:08.738Z,97512.09
2023-04-02T01:37:51.856Z,97510.60
2023-04-02T01:40:39.935Z,97511.13
2023-04-02T01:43:25.935Z,97512.59
2023-04-02T01:45:58.225Z,97517.59
2023-04-02T01:48:35.111Z,97515.23
2023-04-02T01:51:09.314Z,97518.62
2023-04-02T01:53:41.097Z,97514.85
2023-04-02T01:56:11.296Z,97518.58
2023-04-02T01:58:40.084Z,97521.20
2023-04-02T02:01:19.341Z,97524.36
2023-04-02T02:03:46.810Z,97528.17
2023-04-02T02:06:16.684Z,97526.41
2023-04-02T02:08:51.540Z,97530.49
2023-04-02T02:11:24.620Z,97529.08
2023-04-02T02:13:56.402Z,97530.38
2023-04-02T02:16:24.743Z,97529.76
2023-04-02T02:18:55.806Z,97528.83
2023-04-02T02:21:27.805Z,97532.73
2023-04-02T02:23:56.324Z,97530.67
2023-04-02T02:26:24.548Z,97532.02
2023-04-02T02:28:54.523Z,97534.67
2023-04-02T02:31:31.375Z,97533.77
2023-04-02T02:34:06.586Z,97536.88
2023-04-02T02:36:53.068Z,97536.97
2023-04-02T02:39:26.327Z,97536.91
2023-04-02T02:42:01.057Z,97538.64
2023-04-02T02:44:32.452Z,97539.57
2023-04-02T02:47:03.811Z,97537.31
2023-04-02T02:49:40.202Z,97542.80
2023-04-02T02:52:16.322Z,97541.95
2023-04-02T02:54:54.965Z,97544.42
2023-04-02T02:57:34.337Z,97544.99
2023-04-02T03:00:03.962Z,97544.00
2023-04-02T03:02:31.027Z,97549.79
2023-04-02T03:04:58.691Z,97553.17
2023-04-02T03:07:27.731Z,97555.20
2023-04-02T03:10:12.976Z,97556.46
2023-04-02T03:13:01.173Z,97557.90
2023-04-02T03:15:46.390Z,97552.92
2023-04-02T03:18:35.821Z,97556.58
2023-04-02T03:21:27.179Z,97552.42
2023-04-02T03:24:01.657Z,97553.02
2023-04-02T03:26:41.235Z,97556.61
2023-04-02T03:29:42.044Z,97559.38
2023-04-02T03:32:24.628Z,97559.86
2023-04-02T03:34:59.971Z,97564.35
2023-04-02T03:37:52.861Z,97568.09
2023-04-02T03:40:25.096Z,97569.84
2023-04-02T03:42:58.712Z,97568.77
2023-04-02T03:45:32.741Z,97572.79
2023-04-02T03:48:04.009Z,97575.48
2023-04-02T03:50:46.093Z,97576.55
2023-04-02T03:53:13.344Z,97578.28
2023-04-02T03:55:42.459Z,97585.92
2023-04-02T03:58:22.796Z,97591.45
2023-04-02T04:01:00.783Z,97591.06
2023-04-02T04:03:41.453Z,97592.96
2023-04-02T04:06:30.332Z,97597.91
2023-04-02T04:09:00.945Z,97601.06
2023-04-02T04:11:38.113Z,97604.09
2023-04-02T04:14:33.182Z,97603.39
2023-04-02T04:17:14.373Z,97609.02
2023-04-02T04:19:50.124Z,97608.41
2023-04-02T04:22:30.727Z,97614.78
2023-04-02T04:24:59.503Z,97615.96
2023-04-02T04:28:05.947Z,97616.86
2023-04-02T04:30:42.676Z,97618.39
2023-04-02T04:33:22.663Z,97622.33
2023-04-02T04:35:57.763Z,97625.98
2023-04-02T04:38:35.241Z,97624.88
2023-04-02T04:41:19.062Z,97626.04
2023-04-02T04:43:51.942Z,97626.52
2023-04-02T04:46:31.330Z,97628.60
2023-04-02T04:49:36.626Z,97629.06
2023-04-02T04:52:25.796Z,97631.75
2023-04-02T04:54:52.750Z,97631.45
2023-04-02T04:57:36.523Z,97635.96
2023-04-02T05:00:23.192Z,97638.55
2023-04-02T05:03:03.689Z,97640.41
2023-04-02T05:05:34.654Z,97640.49
2023-04-02T05:08:24.352Z,97645.89
2023-04-02T05:11:06.107Z,97651.19
2023-04-02T05:13:54.490Z,97655.81
2023-04-02T05:16:31.647Z,97658.16
2023-04-02T05:19:02.288Z,97662.49
2023-04-02T05:21:47.374Z,97660.39
2023-04-02T05:24:20.236Z,97663.81
2023-04-02T05:26:50.783Z,97665.21
2023-04-02T05:29:24.467Z,97671.91
2023-04-02T05:32:03.794Z,97672.52
2023-04-02T05:34:35.453Z,97675.89
2023-04-02T05:37:04.071Z,97683.39
2023-04-02T05:39:33.123Z,97684.47
2023-04-02T05:42:05.916Z,97692.42
2023-04-02T05:44:38.555Z,97698.06
2023-04-02T05:47:13.946Z,97707.66
2023-04-02T05:50:08.924Z,97711.89
2023-04-02T05:53:34.644Z,97717.00
2023-04-02T05:56:07.941Z,97721.48
2023-04-02T05:58:45.298Z,97725.92
2023-04-02T06:01:39.605Z,97738.71
2023-04-02T06:04:24.116Z,97740.90
2023-04-02T06:07:06.566Z,97748.90
2023-04-02T06:09:49.582Z,97760.75
2023-04-02T06:12:42.231Z,97766.58
2023-04-02T06:15:16.873Z,97773.08
2023-04-02T06:17:48.226Z,97780.80
2023-04-02T06:20:18.528Z,97790.76
2023-04-02T06:22:57.261Z,97796.83
2023-04-02T06:25:45.381Z,97808.60
2023-04-02T06:28:19.964Z,97816.81
2023-04-02T06:30:48.577Z,97822.87
2023-04-02T06:33:16.268Z,97828.20
2023-04-02T06:35:46.961Z,97835.79
2023-04-02T06:38:25.860Z,97840.82
2023-04-02T06:41:00.308Z,97845.80
2023-04-02T06:43:27.295Z,97850.67
2023-04-02T06:45:58.399Z,97856.12
2023-04-02T06:48:25.683Z,97864.34
2023-04-02T06:50:59.387Z,97869.61
2023-04-02T06:53:34.893Z,97873.79
2023-04-02T06:56:10.788Z,97880.41
2023-04-02T06:58:37.912Z,97881.80
2023-04-02T07:01:04.995Z,97883.19
2023-04-02T07:03:33.255Z,97886.36
2023-04-02T07:06:03.217Z,97891.67
2023-04-02T07:08:30.095Z,97896.99
2023-04-02T07:10:57.154Z,97903.27
2023-04-02T07:13:24.757Z,97908.84
2023-04-02T07:15:54.307Z,97909.94
2023-04-02T07:18:38.760Z,97919.42
2023-04-02T07:21:05.885Z,97928.41
2023-04-02T07:23:32.851Z,97930.41
2023-04-02T07:25:59.793Z,97940.00
2023-04-02T07:28:26.685Z,97942.02
2023-04-02T07:30:55.487Z,97950.63
2023-04-02T07:33:29.312Z,97956.70
2023-04-02T07:35:58.162Z,97959.95
2023-04-02T07:38:25.173Z,97961.18
2023-04-02T07:40:52.037Z,97965.55
2023-04-02T07:43:18.983Z,97970.77
2023-04-02T07:45:45.901Z,97976.85
2023-04-02T07:48:14.929Z,97982.58
2023-04-02T07:50:42.295Z,97985.01
2023-04-02T07:53:30.259Z,97991.77
2023-04-02T07:55:59.245Z,97999.05
2023-04-02T07:58:26.201Z,98005.38
2023-04-02T08:00:53.014Z,98008.80
2023-04-02T08:03:20.111Z,98017.42
2023-04-02T08:05:54.912Z,98019.64
2023-04-02T08:08:23.252Z,98027.67
2023-04-02T08:10:51.096Z,98041.67
2023-04-02T08:13:19.972Z,98045.94
2023-04-02T08:15:47.398Z,98052.88
2023-04-02T08:18:14.289Z,98059.11
2023-04-02T08:20:41.246Z,98065.99
2023-04-02T08:23:17.439Z,98067.73
2023-04-02T08:25:45.728Z,98068.52
2023-04-02T08:28:12.841Z,98079.50
2023-04-02T08:30:40.101Z,98079.71
2023-04-02T08:33:07.607Z,98084.96
2023-04-02T08:35:34.988Z,98084.38
2023-04-02T08:38:02.381Z,98090.31
2023-04-02T08:40:41.654Z,98095.30
2023-04-02T08:43:08.442Z,98096.39
2023-04-02T08:46:06.879Z,98102.36
2023-04-02T08:48:37.494Z,98107.19
2023-04-02T08:51:06.447Z,98110.81
2023-04-02T08:53:37.484Z,98113.79
2023-04-02T08:56:10.283Z,98121.95
2023-04-02T08:58:43.241Z,98127.36
2023-04-02T09:01:31.891Z,98135.11
2023-04-02T09:03:59.582Z,98138.08
2023-04-02T09:06:29.405Z,98145.38
2023-04-02T09:08:58.604Z,98147.33
2023-04-02T09:11:55.220Z,98150.41
2023-04-02T09:14:29.815Z,98151.61
2023-04-02T09:17:02.292Z,98159.16
2023-04-02T09:19:41.639Z,98158.31
2023-04-02T09:22:26.684Z,98161.02
2023-04-02T09:24:56.201Z,98164.79
2023-04-02T09:27:28.673Z,98172.08
2023-04-02T09:30:03.484Z,98170.22
2023-04-02T09:32:52.984Z,98174.89
2023-04-02T09:35:29.578Z,98180.86
2023-04-02T09:38:22.949Z,98190.60
2023-04-02T09:40:56.041Z,98198.16
2023-04-02T09:43:29.315Z,98199.58
2023-04-02T09:46:05.396Z,98208.96
2023-04-02T09:48:44.290Z,98212.04
2023-04-02T09:51:15.628Z,98215.20
2023-04-02T09:54:02.827Z,98218.23
2023-04-02T09:56:34.920Z,98221.59
2023-04-02T09:59:13.969Z,98226.98
2023-04-02T10:01:44.315Z,98228.29
2023-04-02T10:04:44.444Z,98234.27
2023-04-02T10:07:43.190Z,98235.44
2023-04-02T10:10:39.897Z,98236.27
2023-04-02T10:13:19.004Z,98241.51
2023-04-02T10:16:02.944Z,98244.34
2023-04-02T10:18:49.714Z,98248.23
2023-04-02T10:21:29.412Z,98254.39
2023-04-02T10:23:58.763Z,98255.29
2023-04-02T10:26:25.585Z,98258.15
2023-04-02T10:29:06.893Z,98264.21
2023-04-02T10:31:58.829Z,98271.90
2023-04-02T10:34:41.157Z,98274.66
2023-04-02T10:37:24.609Z,98270.91
2023-04-02T10:39:58.852Z,98274.11
2023-04-02T10:42:39.477Z,98274.64
2023-04-02T10:45:46.561Z,98275.12
2023-04-02T10:48:52.294Z,98280.77
2023-04-02T10:51:46.863Z,98286.14
2023-04-02T10:54:33.408Z,98293.22
2023-04-02T10:57:10.924Z,98294.89
2023-04-02T10:59:43.495Z,98296.92
2023-04-02T11:02:28.090Z,98301.71
2023-04-02T11:05:00.519Z,98310.94
2023-04-02T11:07:32.632Z,98316.42
2023-04-02T11:10:01.164Z,98319.63
2023-04-02T11:12:48.288Z,98317.92
2023-04-02T11:15:17.485Z,98321.55
2023-04-02T11:17:45.782Z,98320.66
2023-04-02T11:20:44.457Z,98326.09
2023-04-02T11:23:21.107Z,98325.80
2023-04-02T11:25:49.073Z,98325.54
2023-04-02T11:28:33.102Z,98328.33
2023-04-02T11:31:00.580Z,98327.22
2023-04-02T11:33:45.363Z,98331.55
2023-04-02T11:36:52.446Z,98337.10
2023-04-02T11:39:47.523Z,98339.41
2023-04-02T11:42:27.696Z,98341.14
2023-04-02T11:44:55.534Z,98341.09
2023-04-02T11:47:28.363Z,98340.41
2023-04-02T11:49:55.808Z,98341.06
2023-04-02T11:52:46.569Z,98343.39
2023-04-02T11:55:27.603Z,98346.83
2023-04-02T11:58:36.501Z,98346.39
2023-04-02T12:01:09.495Z,98354.05
2023-04-02T12:03:48.329Z,98353.58
2023-04-02T12:06:19.135Z,98353.24
2023-04-02T12:09:22.878Z,98356.31
2023-04-02T12:11:57.264Z,98360.73
2023-04-02T12:14:42.906Z,98362.07
2023-04-02T12:17:40.625Z,98368.34
2023-04-02T12:20:09.440Z,98370.77
2023-04-02T12:22:41.167Z,98379.25
2023-04-02T12:25:27.626Z,98382.83
2023-04-02T12:28:23.888Z,98387.16
2023-04-02T12:31:02.294Z,98390.14
2023-04-02T12:33:39.585Z,98390.73
2023-04-02T12:36:14.964Z,98390.35
2023-04-02T12:38:49.436Z,98393.45
2023-04-02T12:41:27.584Z,98396.70
2023-04-02T12:44:06.716Z,98394.02
2023-04-02T12:46:36.165Z,98398.26
2023-04-02T12:49:10.418Z,98398.86
2023-04-02T12:51:38.162Z,98397.14
2023-04-02T12:54:06.281Z,98405.73
2023-04-02T12:56:33.836Z,98406.36
2023-04-02T12:59:01.673Z,98412.30
2023-04-02T13:01:32.100Z,98414.23
2023-04-02T13:04:19.560Z,98419.20
2023-04-02T13:06:52.430Z,98419.64
2023-04-02T13:09:34.061Z,98426.70
2023-04-02T13:12:01.834Z,98423.08
2023-04-02T13:14:30.321Z,98426.30
2023-04-02T13:16:57.854Z,98430.89
2023-04-02T13:19:32.605Z,98435.36
2023-04-02T13:22:02.413Z,98438.54
2023-04-02T13:24:32.129Z,98445.95
2023-04-02T13:27:03.688Z,98446.42
2023-04-02T13:29:35.859Z,98448.09
2023-04-02T13:32:11.602Z,98449.44
2023-04-02T13:34:38.921Z,98447.60
2023-04-02T13:37:06.026Z,98446.79
2023-04-02T13:39:33.007Z,98446.38
2023-04-02T13:42:03.059Z,98446.86
2023-04-02T13:44:32.486Z,98445.30
2023-04-02T13:47:00.813Z,98448.95
2023-04-02T13:49:28.537Z,98457.34
2023-04-02T13:52:03.320Z,98463.23
2023-04-02T13:54:45.943Z,98467.89
2023-04-02T13:57:13.215Z,98472.65
2023-04-02T13:59:40.238Z,98474.08
2023-04-02T14:02:12.940Z,98472.55
2023-04-02T14:04:46.629Z,98475.79
2023-04-02T14:07:33.844Z,98480.42
2023-04-02T14:10:04.883Z,98483.37
2023-04-02T14:12:54.495Z,98487.95
2023-04-02T14:15:53.687Z,98491.83
2023-04-02T14:18:48.495Z,98498.04
2023-04-02T14:22:00.285Z,98505.98
2023-04-02T14:25:03.076Z,98508.51
2023-04-02T14:27:53.924Z,98512.20
2023-04-02T14:30:36.786Z,98514.21
2023-04-02T14:33:09.721Z,98516.49
2023-04-02T14:35:42.718Z,98517.35
2023-04-02T14:38:15.806Z,98516.39
2023-04-02T14:40:52.256Z,98523.61
2023-04-02T14:43:24.658Z,98520.72
2023-04-02T14:46:05.775Z,98528.48
2023-04-02T14:48:53.078Z,98534.58
2023-04-02T14:51:32.332Z,98537.19
2023-04-02T14:53:59.255Z,98534.70
2023-04-02T14:56:26.991Z,98536.09
2023-04-02T14:59:26.160Z,98534.70
2023-04-02T15:02:02.793Z,98537.84
2023-04-02T15:04:45.522Z,98539.58
2023-04-02T15:07:26.455Z,98538.77
2023-04-02T15:10:17.594Z,98545.98
2023-04-02T15:12:45.531Z,98551.94
2023-04-02T15:15:40.061Z,98553.89
2023-04-02T15:18:16.649Z,98554.15
2023-04-02T15:20:58.241Z,98564.92
2023-04-02T15:23:42.864Z,98564.42
2023-04-02T15:26:27.456Z,98568.38
2023-04-02T15:29:28.340Z,98570.50
2023-04-02T15:32:15.954Z,98575.32
2023-04-02T15:35:11.838Z,98575.95
2023-04-02T15:37:57.388Z,98581.62
2023-04-02T15:40:30.890Z,98584.02
2023-04-02T15:43:19.736Z,98592.13
2023-04-02T15:46:10.303Z,98592.45
2023-04-02T15:49:10.645Z,98598.67
2023-04-02T15:52:05.946Z,98603.20
2023-04-02T15:55:02.336Z,98610.77
2023-04-02T15:57:29.235Z,98609.30
2023-04-02T16:00:22.691Z,98612.61
2023-04-02T16:03:06.449Z,98616.09
2023-04-02T16:06:01.361Z,98618.73
2023-04-02T16:08:47.299Z,98621.35
2023-04-02T16:11:16.190Z,98622.00
2023-04-02T16:13:44.335Z,98628.63
2023-04-02T16:16:22.276Z,98629.11
2023-04-02T16:19:01.813Z,98632.70
2023-04-02T16:21:33.671Z,98632.45
2023-04-02T16:24:02.003Z,98638.73
2023-04-02T16:26:46.403Z,98633.02
2023-04-02T16:29:53.426Z,98635.98
2023-04-02T16:32:46.065Z,98640.13
2023-04-02T16:35:54.426Z,98649.13
2023-04-02T16:38:52.689Z,98649.70
2023-04-02T16:41:44.175Z,98655.27
2023-04-02T16:44:42.193Z,98660.46
2023-04-02T16:47:23.375Z,98659.57
2023-04-02T16:49:53.447Z,98661.79
2023-04-02T16:52:43.565Z,98666.82
2023-04-02T16:55:16.892Z,98666.21
2023-04-02T16:58:30.502Z,98670.11
2023-04-02T17:01:20.844Z,98672.66
2023-04-02T17:04:19.934Z,98675.58
2023-04-02T17:06:56.169Z,98682.49
2023-04-02T17:09:39.879Z,98686.55
2023-04-02T17:12:28.524Z,98690.81
2023-04-02T17:15:29.615Z,98688.84
2023-04-02T17:18:02.137Z,98693.81
2023-04-02T17:20:29.461Z,98695.39
2023-04-02T17:22:56.577Z,98699.39
2023-04-02T17:25:32.263Z,98701.30
2023-04-02T17:27:59.231Z,98705.56
2023-04-02T17:30:49.049Z,98708.19
2023-04-02T17:33:18.342Z,98706.89
2023-04-02T17:36:00.915Z,98707.47
2023-04-02T17:38:49.696Z,98712.92
2023-04-02T17:41:38.837Z,98711.98
2023-04-02T17:44:11.835Z,98720.39
2023-04-02T17:47:06.924Z,98723.73
2023-04-02T17:50:12.428Z,98723.11
2023-04-02T17:52:46.652Z,98724.79
2023-04-02T17:55:26.150Z,98729.23
2023-04-02T17:58:12.726Z,98729.80
2023-04-02T18:00:55.551Z,98735.32
2023-04-02T18:03:50.722Z,98736.80
2023-04-02T18:06:33.676Z,98732.92
2023-04-02T18:09:04.710Z,98739.70
2023-04-02T18:11:37.892Z,98740.91
2023-04-02T18:14:42.159Z,98738.31
2023-04-02T18:17:27.906Z,98739.63
2023-04-02T18:20:20.971Z,98741.89
2023-04-02T18:23:02.723Z,98748.25
2023-04-02T18:25:43.506Z,98750.48
2023-04-02T18:28:24.641Z,98753.77
2023-04-02T18:31:14.548Z,98758.51
2023-04-02T18:34:00.386Z,98761.06
2023-04-02T18:36:43.935Z,98764.34
2023-04-02T18:39:33.502Z,98769.90
2023-04-02T18:42:23.106Z,98770.36
2023-04-02T18:45:12.252Z,98772.40
2023-04-02T18:47:58.091Z,98773.77
2023-04-02T18:50:32.873Z,98779.42
2023-04-02T18:53:13.553Z,98782.88
2023-04-02T18:55:51.592Z,98786.27
2023-04-02T18:58:27.618Z,98791.45
2023-04-02T19:00:56.320Z,98797.33
2023-04-02T19:03:53.897Z,98797.98
2023-04-02T19:06:27.416Z,98795.39
2023-04-02T19:09:08.328Z,98798.33
2023-04-02T19:11:35.777Z,98799.68
2023-04-02T19:14:08.306Z,98800.70
2023-04-02T19:17:01.553Z,98803.27
2023-04-02T19:19:54.625Z,98802.17
2023-04-02T19:22:57.866Z,98803.44
2023-04-02T19:25:37.233Z,98806.02
2023-04-02T19:28:23.507Z,98810.01
2023-04-02T19:31:34.486Z,98809.79
2023-04-02T19:34:39.669Z,98811.25
2023-04-02T19:37:25.664Z,98815.52
2023-04-02T19:40:01.745Z,98819.34
2023-04-02T19:42:47.233Z,98817.63
2023-04-02T19:45:49.366Z,98819.34
2023-04-02T19:48:21.073Z,98827.64
2023-04-02T19:50:49.771Z,98826.30
2023-04-02T19:53:17.704Z,98829.71
2023-04-02T19:55:45.268Z,98831.02
2023-04-02T19:58:23.849Z,98833.73
2023-04-02T20:00:51.238Z,98833.27
2023-04-02T20:03:18.599Z,98831.98
2023-04-02T20:05:46.273Z,98834.86
2023-04-02T20:08:13.493Z,98835.63
2023-04-02T20:10:41.045Z,98837.10
2023-04-02T20:13:09.769Z,98842.02
2023-04-02T20:15:37.472Z,98840.89
2023-04-02T20:18:05.489Z,98842.08
2023-04-02T20:20:32.870Z,98841.59
2023-04-02T20:23:00.217Z,98847.33
2023-04-02T20:25:27.530Z,98848.56
2023-04-02T20:27:55.021Z,98849.55
2023-04-02T20:30:21.914Z,98851.40
2023-04-02T20:32:49.064Z,98852.48
2023-04-02T20:35:16.653Z,98853.17
2023-04-02T20:37:43.893Z,98861.50
2023-04-02T20:40:11.298Z,98859.23
2023-04-02T20:42:38.413Z,98862.29
2023-04-02T20:45:06.738Z,98861.43
2023-04-02T20:47:34.145Z,98865.20
2023-04-02T20:50:01.355Z,98865.71
2023-04-02T20:52:30.547Z,98865.07
2023-04-02T20:54:57.919Z,98870.09
2023-04-02T20:57:26.820Z,98874.48
2023-04-02T20:59:54.897Z,98873.33
2023-04-02T21:02:21.940Z,98873.64
2023-04-02T21:04:49.617Z,98873.00
2023-04-02T21:07:17.347Z,98871.33
2023-04-02T21:09:44.309Z,98877.34
2023-04-02T21:12:11.767Z,98874.85
2023-04-02T21:14:40.243Z,98878.80
2023-04-02T21:17:08.237Z,98876.58
2023-04-02T21:19:36.361Z,98879.70
2023-04-02T21:22:03.917Z,98880.34
